• Join FlightAware (Why Join?)
  • Login
  • US Flag 
01:28AM EDT


 

Airport Tracker/Info


-or-


 

Live Flight TrackerFlight Track Log ✈ GLA34K ✈ 06-May-2013 ✈ KDIK - KDEN

Flight Track Log - Related Links

Times and Time Zones

All times are in EDT time to prevent confusion due to time zone crossing. See the GLA34K flight status page for this flight to view local times or setup timezone preferences in your user account.

Time Position Orientation Groundspeed Altitude Reporting Facility
EDT Latitude Longitude Course Direction KTS MPH feet Rate Location/Type
02:35PM 46.3302 -102.9426 155° Southeast  Level Estimated
02:36PM 46.2524 -102.9658 155° Southeast  Level Estimated
02:36PM 46.6569 -102.6828 156° South 191 220 8,300  Level Minneapolis Center
02:37PM 46.2307 -102.8552 106° East  Level FlightAware Approximate
02:37PM 46.6064 -102.6489 155° Southeast 196 226 10,200  Level Minneapolis Center
02:38PM 46.2089 -102.7447 106° East  Level FlightAware Approximate
02:38PM 46.5397 -102.6197 163° South 201 231 12,400  Level Minneapolis Center
02:39PM 46.1315 -102.7709 157° South  Level Estimated
02:39PM 46.4814 -102.6033 169° South 209 241 14,700  Level Minneapolis Center
02:40PM 46.0978 -102.6670 115° Southeast  Level FlightAware Approximate
02:40PM 46.4250 -102.5761 162° South 212 244 16,200  Level Minneapolis Center
02:41PM 46.0206 -102.6946 156° South  Level Estimated
02:42PM 46.3124 -102.4693 155° Southeast  Level FlightAware Approximate
02:43PM 46.2333 -102.5258 156° South 238 274 20,000  Level Minneapolis Center
02:45PM 46.1551 -102.3881 129° Southeast  Level FlightAware Approximate
02:45PM 46.0925 -102.4794 129° Southeast 244 281 22,400  Level Minneapolis Center
02:46PM 46.0264 -102.4542 165° South 246 283 23,300 840 Climbing Minneapolis Center
02:48PM 45.9197 -102.4968 156° South  Level Estimated
02:49PM 45.7972 -102.1421 156° South  Level FlightAware Approximate
02:50PM 45.7583 -102.3014 93° East 249 287 26,800  Level Minneapolis Center
02:52PM 45.6551 -102.3264 197° South  Level FlightAware Approximate
02:52PM 45.6272 -102.2789 197° South 263 303 28,000  Level Minneapolis Center
02:53PM 45.5417 -102.3228 200° South 271 312 28,200 60 Climbing Minneapolis Center
02:55PM 45.3985 -102.7025 157° South  Level Estimated
02:55PM 45.3786 -102.3722 192° South 298 343 28,200  Level Minneapolis Center
02:56PM 45.3946 -102.5926 93° East  Level FlightAware Approximate
02:58PM 45.1806 -102.4400 194° South 307 353 28,200  Level Denver Center
02:58PM 45.1322 -102.4608 197° South 307 353 28,200  Level Minneapolis Center
03:00PM 45.0344 -102.5053 198° South 309 356 28,200  Level Minneapolis Center
03:01PM 44.9539 -102.5469 200° South 308 354 28,200  Level Minneapolis Center
03:02PM 44.8469 -102.6122 203° Southwest 302 348 28,200  Level Denver Center
03:03PM 44.7725 -102.6647 207° Southwest 301 346 28,200  Level Denver Center
03:04PM 44.7008 -102.7181 208° Southwest 295 339 28,200  Level Denver Center
03:06PM 44.5339 -102.8153 203° Southwest 294 338 28,200  Level Minneapolis Center
03:07PM 44.4714 -102.8367 194° South 289 333 28,200  Level Denver Center
03:09PM 44.2975 -102.8828 191° South 290 334 28,200  Level Denver Center
03:10PM 44.2181 -102.9017 190° South 289 333 28,200  Level Denver Center
03:11PM 44.1358 -102.9306 194° South 291 335 28,200 -60 Level Denver Center
03:14PM 44.0465 -102.9673 196° South  Level FlightAware Approximate
03:14PM 43.9061 -103.0528 196° South 291 335 28,100  Level Denver Center
03:16PM 43.8152 -103.0709 188° South  Level FlightAware Approximate
03:16PM 43.7383 -103.0819 188° South 290 334 28,100  Level Denver Center
03:17PM 43.6486 -103.0914 184° South 288 331 28,100  Level Denver Center
03:18PM 43.5719 -103.0972 183° South 288 331 28,100  Level Denver Center
03:19PM 43.4964 -103.1086 186° South 286 329 28,100  Level Denver Center
03:20PM 43.4094 -103.1286 189° South 283 326 28,100  Level Denver Center
03:22PM 43.3339 -103.1456 189° South 286 329 28,100  Level Denver Center
03:23PM 43.2472 -103.1636 189° South 283 326 28,100  Level Denver Center
03:25PM 43.1002 -103.1990 190° South  Level FlightAware Approximate
03:25PM 43.0856 -103.1933 190° South 281 323 28,100  Level Denver Center
03:26PM 43.0094 -103.2047 189° South 284 327 28,100  Level Denver Center
03:27PM 42.9336 -103.2150 186° South 285 328 28,100  Level Denver Center
03:29PM 42.7981 -103.2707 189° South  Level FlightAware Approximate
03:31PM 42.6586 -103.3761 200° South  Level Estimated
03:32PM 42.5303 -103.3103 200° South 275 316 28,100  Level Denver Center
03:33PM 42.4575 -103.3300 191° South 275 316 28,100  Level Denver Center
03:35PM 42.3344 -103.3595 190° South  Level FlightAware Approximate
03:35PM 42.3000 -103.3711 190° South 278 320 28,100  Level Denver Center
03:36PM 42.2294 -103.3914 192° South 272 313 28,100 -480 Level Denver Center
03:38PM 42.1536 -103.6192 200° South  Level Estimated
03:38PM 42.1123 -103.4170 189° South  Level FlightAware Approximate
03:41PM 41.8303 -103.4850 186° South 287 330 25,200  Level Denver Center
03:43PM 41.7251 -103.5022 187° South  Level FlightAware Approximate
03:43PM 41.6617 -103.5289 187° South 301 346 24,100  Level Denver Center
03:45PM 41.5823 -103.5241 188° South  Level FlightAware Approximate
03:45PM 41.5634 -103.5197 186° South  Level FlightAware Approximate
03:45PM 41.5056 -103.5406 186° South 292 336 23,200  Level Denver Center
03:46PM 41.5063 -103.5370 186° South  Level FlightAware Approximate
03:47PM 41.4302 -103.5475 186° South  Level FlightAware Approximate
03:47PM 41.4139 -103.5525 186° South  Level FlightAware Approximate
03:47PM 41.3319 -103.5650 186° South 301 346 20,900  Level Denver Center
03:48PM 41.2358 -103.5919 192° South 311 358 19,500 -1,260 Descending Denver Center
03:50PM 41.1512 -103.5985 183° South  Level FlightAware Approximate
03:50PM 41.0597 -103.6217 183° South 309 356 17,100  Level Denver Center
03:51PM 40.9700 -103.6219 180° South 311 358 16,400 -540 Descending Denver Center
03:52PM 40.8831 -103.6217 180° South 310 357 16,100 -120 Descending Denver Center
03:54PM 40.8071 -103.6371 186° South  Level FlightAware Approximate
03:56PM 40.6347 -103.6394 229° Southwest 290 334 16,100  Level Denver Center
03:58PM 40.5144 -103.7817 222° Southwest 290 334 14,600 -900 Descending Denver Center
03:59PM 40.4611 -103.8636 229° Southwest 293 337 13,400 -480 Descending Denver Center
04:01PM 40.3842 -103.9487 229° Southwest  Level FlightAware Approximate
04:01PM 40.3500 -104.0500 232° Southwest 279 321 13,100  Level Denver TRACON
04:02PM 40.3000 -104.1092 222° Southwest 277 319 13,100  Level Denver Center
04:03PM 40.2386 -104.1814 222° Southwest 276 318 13,100  Level Denver Center
04:05PM 40.1167 -104.3000 217° Southwest 282 325 13,100  Level Denver TRACON
04:06PM 40.0667 -104.3667 226° Southwest 282 325 13,100  Level Denver TRACON
04:06PM 40.0550 -104.3850 230° Southwest 281 323 13,100  Level Denver Center
04:07PM 39.9969 -104.4542 222° Southwest 282 325 13,100 -420 Level Denver Center
04:08PM 39.9667 -104.5000 229° Southwest 262 302 12,400 -720 Descending Denver TRACON
04:10PM 39.8500 -104.5000 180° South 250 288 11,200 -540 Descending Denver TRACON
04:11PM 39.7833 -104.5000 180° South 254 292 10,900 -600 Descending Denver TRACON
04:11PM 39.7572 -104.4925 168° South 249 287 10,400 -1,200 Descending Denver Center
04:13PM 39.6667 -104.5000 184° South 229 264 8,500 -1,140 Descending Denver TRACON
04:13PM 39.6544 -104.5408 249° West 235 270 8,100 -480 Descending Denver Center
04:14PM 39.6683 -104.6186 283° West 229 264 7,800 -540 Descending Denver Center
04:15PM 39.7225 -104.6436 340° North 218 251 7,100 -660 Descending Denver Center
04:17PM 39.8211 -104.6425 360° North 182 209 5,800 -660 Descending Denver Center
04:19PM 39.8500 -104.6667 320° Northwest  Level FlightAware Approximate
04:26PM 39.8617 -104.6732 320° Northwest  Level Estimated